Time;durP1;ratioP1;P1;durP2;ratioP2;P2;SDS_P1;SDS_P2;PMS_P1;PMS_P2;Temp;Humidity;BMP_temperature;BMP_pressure;BME280_temperature;BME280_humidity;BME280_pressure;Samples;Min_cycle;Max_cycle;Signal;HPM_P1;HPM_P2
2022/11/16 00:00:44;;;;;;;6.10;3.72;;;10.40;99.90;;;;;;5050247;28;20052;-70
2022/11/16 00:03:10;;;;;;;4.35;3.75;;;10.40;99.90;;;;;;5047892;28;20040;-70
2022/11/16 00:05:36;;;;;;;4.25;3.90;;;10.40;99.90;;;;;;5049523;28;20097;-70
2022/11/16 00:08:01;;;;;;;13.90;3.97;;;10.40;99.90;;;;;;5031888;28;20070;-69
2022/11/16 00:10:28;;;;;;;4.85;4.00;;;10.40;99.90;;;;;;5049182;28;20118;-70
2022/11/16 00:12:54;;;;;;;5.47;3.83;;;10.40;99.90;;;;;;5048669;28;20406;-68
2022/11/16 00:15:20;;;;;;;11.00;4.25;;;10.50;99.90;;;;;;5032702;28;20049;-68
2022/11/16 00:17:45;;;;;;;9.05;4.70;;;10.50;99.90;;;;;;5049966;28;20059;-68
2022/11/16 00:20:11;;;;;;;8.10;4.25;;;10.50;99.90;;;;;;5032004;28;20048;-69
2022/11/16 00:22:38;;;;;;;7.13;4.07;;;10.50;99.90;;;;;;5032770;28;20349;-68
2022/11/16 00:25:04;;;;;;;10.00;4.18;;;10.50;99.90;;;;;;5066059;28;20525;-68
2022/11/16 00:27:30;;;;;;;11.90;4.38;;;10.50;99.90;;;;;;5049106;28;20044;-68
2022/11/16 00:29:56;;;;;;;9.63;4.70;;;10.50;99.90;;;;;;5066457;28;20036;-68
2022/11/16 00:32:22;;;;;;;10.00;4.18;;;10.50;99.90;;;;;;5048977;28;20044;-68
2022/11/16 00:34:48;;;;;;;6.53;3.70;;;10.50;99.90;;;;;;5048495;28;20392;-67
2022/11/16 00:37:14;;;;;;;10.23;4.93;;;10.50;99.90;;;;;;5032508;28;20060;-69
2022/11/16 00:39:39;;;;;;;8.23;4.15;;;10.50;99.90;;;;;;5048477;28;20088;-68
2022/11/16 00:42:05;;;;;;;5.65;4.18;;;10.50;99.90;;;;;;5046953;28;20538;-69
2022/11/16 00:44:32;;;;;;;8.20;3.97;;;10.50;99.90;;;;;;5045651;28;20584;-69
2022/11/16 00:46:58;;;;;;;6.15;3.83;;;10.50;99.90;;;;;;5046199;28;20578;-69
2022/11/16 00:49:24;;;;;;;8.23;3.55;;;10.50;99.90;;;;;;5049189;28;20058;-69
2022/11/16 00:51:49;;;;;;;5.25;3.80;;;10.50;99.90;;;;;;5016293;28;20033;-69
2022/11/16 00:54:15;;;;;;;5.82;3.83;;;10.50;99.90;;;;;;5049001;28;20057;-69
2022/11/16 00:56:41;;;;;;;6.85;4.45;;;10.50;99.90;;;;;;5048448;28;20056;-69
2022/11/16 00:59:08;;;;;;;4.55;3.72;;;10.50;99.90;;;;;;5011946;28;20049;-69
2022/11/16 01:01:34;;;;;;;8.60;4.07;;;10.50;99.90;;;;;;5040924;28;20079;-69
2022/11/16 01:04:00;;;;;;;3.83;3.42;;;10.50;99.90;;;;;;5041062;28;20075;-69
2022/11/16 01:06:25;;;;;;;10.88;3.95;;;10.50;99.90;;;;;;5032247;28;20080;-69
2022/11/16 01:08:51;;;;;;;10.88;4.03;;;10.50;99.90;;;;;;5065205;28;20048;-69
2022/11/16 01:14:04;;;;;;;7.80;3.75;;;10.50;99.90;;;;;;5048725;28;20099;-69
2022/11/16 01:16:30;;;;;;;5.97;3.33;;;10.50;99.90;;;;;;5046787;28;20136;-69
2022/11/16 01:18:56;;;;;;;5.88;3.92;;;10.50;99.90;;;;;;5066888;28;20075;-69
2022/11/16 01:21:23;;;;;;;8.32;4.30;;;10.50;99.90;;;;;;5046998;28;20082;-69
2022/11/16 01:23:49;;;;;;;6.13;3.88;;;10.50;99.90;;;;;;5048617;28;20044;-69
2022/11/16 01:26:15;;;;;;;4.65;3.50;;;10.50;99.90;;;;;;5064992;28;20128;-69
2022/11/16 01:28:41;;;;;;;4.00;3.60;;;10.60;99.90;;;;;;5048075;28;20127;-69
2022/11/16 01:31:08;;;;;;;5.10;3.80;;;10.60;99.90;;;;;;5048152;28;20056;-69
2022/11/16 01:33:34;;;;;;;7.65;3.50;;;10.60;99.90;;;;;;5047279;28;20044;-68
2022/11/16 01:36:01;;;;;;;4.53;3.65;;;10.60;99.90;;;;;;5040048;28;20422;-68
2022/11/16 01:38:27;;;;;;;4.22;3.47;;;10.60;99.90;;;;;;5046744;28;20092;-69
2022/11/16 01:40:52;;;;;;;3.58;2.80;;;10.60;99.90;;;;;;5048587;28;20553;-68
2022/11/16 01:43:23;;;;;;;12.52;3.40;;;10.60;99.90;;;;;;5064252;28;20079;-68
2022/11/16 01:45:49;;;;;;;6.50;3.10;;;10.60;99.90;;;;;;5065737;28;20056;-68
2022/11/16 01:48:22;;;;;;;10.00;3.58;;;10.60;99.90;;;;;;5065673;28;20055;-69
2022/11/16 01:50:48;;;;;;;5.47;3.50;;;10.70;99.90;;;;;;5047162;28;20044;-68
2022/11/16 01:53:15;;;;;;;7.55;3.80;;;10.70;99.90;;;;;;5048047;28;20071;-69
2022/11/16 01:55:43;;;;;;;9.57;3.40;;;10.70;99.90;;;;;;5053186;28;20036;-68
2022/11/16 01:58:14;;;;;;;3.65;3.30;;;10.70;99.90;;;;;;5048430;28;20044;-69
2022/11/16 02:00:40;;;;;;;4.65;3.15;;;10.60;99.90;;;;;;5064233;28;20040;-68
2022/11/16 02:03:06;;;;;;;4.50;3.33;;;10.60;99.90;;;;;;5048018;28;20110;-68
2022/11/16 02:06:00;;;;;;;8.48;3.33;;;10.60;99.90;;;;;;5046325;28;20527;-68
2022/11/16 02:11:20;;;;;;;7.13;3.60;;;10.60;99.90;;;;;;5048079;28;20075;-68
2022/11/16 02:14:41;;;;;;;8.18;3.70;;;10.60;99.90;;;;;;5046032;28;20130;-68
2022/11/16 02:17:36;;;;;;;11.20;3.72;;;10.60;99.90;;;;;;4975771;28;20054;-68
2022/11/16 02:20:39;;;;;;;5.38;3.60;;;10.50;99.90;;;;;;5022601;28;20070;-68
2022/11/16 02:23:33;;;;;;;10.07;3.63;;;10.50;99.90;;;;;;5046903;28;20048;-67
2022/11/16 02:26:01;;;;;;;7.28;3.10;;;10.50;99.90;;;;;;5046309;28;20048;-68
2022/11/16 02:29:06;;;;;;;6.13;3.67;;;10.50;99.90;;;;;;5031591;28;20571;-68
2022/11/16 02:32:05;;;;;;;6.57;3.53;;;10.50;99.90;;;;;;5064087;28;20084;-68
2022/11/16 02:34:46;;;;;;;7.10;3.50;;;10.50;99.90;;;;;;5035530;28;20088;-68
2022/11/16 02:37:15;;;;;;;4.68;2.75;;;10.50;99.90;;;;;;5066409;28;20660;-68
2022/11/16 02:39:43;;;;;;;7.55;3.83;;;10.50;99.90;;;;;;5063674;28;20075;-68
2022/11/16 02:42:15;;;;;;;9.20;4.45;;;10.40;99.90;;;;;;5047457;28;20047;-68
2022/11/16 02:44:45;;;;;;;11.35;3.35;;;10.40;99.90;;;;;;5046484;28;20589;-68
2022/11/16 02:47:17;;;;;;;5.10;3.63;;;10.40;99.90;;;;;;5064480;28;20086;-68
2022/11/16 02:49:49;;;;;;;8.23;3.38;;;10.40;99.90;;;;;;5038940;28;20494;-68
2022/11/16 02:52:16;;;;;;;7.65;3.85;;;10.40;99.90;;;;;;5063660;28;20128;-67
2022/11/16 02:54:42;;;;;;;6.38;3.85;;;10.40;99.90;;;;;;5064586;28;20371;-68
2022/11/16 02:57:07;;;;;;;6.97;3.83;;;10.40;99.90;;;;;;5060233;28;20050;-67
2022/11/16 02:59:55;;;;;;;8.32;3.45;;;10.40;99.90;;;;;;5064087;28;20045;-68
2022/11/16 03:02:38;;;;;;;4.32;3.58;;;10.40;99.90;;;;;;5061156;28;20435;-67
2022/11/16 03:05:10;;;;;;;7.70;3.80;;;10.40;99.90;;;;;;5067238;28;20433;-67
2022/11/16 03:08:17;;;;;;;6.90;4.00;;;10.40;99.90;;;;;;5049484;28;20482;-67
2022/11/16 03:13:34;;;;;;;6.15;3.85;;;10.40;99.90;;;;;;5037986;28;20060;-67
2022/11/16 03:16:04;;;;;;;11.27;3.58;;;10.40;99.90;;;;;;5048472;28;20081;-67
2022/11/16 03:18:30;;;;;;;5.95;3.50;;;10.30;99.90;;;;;;5049309;28;20052;-67
2022/11/16 03:21:05;;;;;;;4.50;3.78;;;10.40;99.90;;;;;;5058025;28;20075;-66
2022/11/16 03:23:31;;;;;;;4.75;3.55;;;10.40;99.90;;;;;;5067631;28;20139;-67
2022/11/16 03:26:02;;;;;;;6.82;3.85;;;10.40;99.90;;;;;;5066917;28;20345;-67
2022/11/16 03:28:35;;;;;;;10.88;3.45;;;10.40;99.90;;;;;;5065957;28;20048;-67
2022/11/16 03:31:10;;;;;;;7.30;3.47;;;10.40;99.90;;;;;;5066389;28;20057;-66
2022/11/16 03:33:57;;;;;;;4.65;3.53;;;10.40;99.90;;;;;;5069045;28;20055;-66
2022/11/16 03:36:26;;;;;;;5.53;3.22;;;10.40;99.90;;;;;;5062329;28;20048;-67
2022/11/16 03:38:53;;;;;;;4.63;3.73;;;10.40;99.90;;;;;;5067803;28;20411;-67
2022/11/16 03:41:20;;;;;;;5.63;3.50;;;10.30;99.90;;;;;;5050609;28;20357;-68
2022/11/16 03:43:48;;;;;;;8.23;3.47;;;10.40;99.90;;;;;;5066335;28;20067;-67
2022/11/16 03:46:16;;;;;;;6.63;3.33;;;10.30;99.90;;;;;;5068797;28;20452;-67
2022/11/16 03:48:42;;;;;;;7.47;2.95;;;10.40;99.90;;;;;;5048401;28;20499;-66
2022/11/16 03:51:10;;;;;;;8.55;3.67;;;10.40;99.90;;;;;;5050026;28;20682;-67
2022/11/16 03:53:36;;;;;;;6.20;3.45;;;10.40;99.90;;;;;;5067055;28;20045;-67
2022/11/16 03:56:02;;;;;;;5.15;3.88;;;10.30;99.90;;;;;;5049660;28;20049;-67
2022/11/16 03:58:28;;;;;;;9.30;3.95;;;10.40;99.90;;;;;;5067926;28;20051;-66
2022/11/16 04:00:54;;;;;;;6.50;3.72;;;10.40;99.90;;;;;;5066439;28;20097;-67
2022/11/16 04:03:20;;;;;;;7.78;3.75;;;10.30;99.90;;;;;;5068120;28;20402;-66
2022/11/16 04:25:20;;;;;;;10.85;4.93;;;10.30;99.90;;;;;;5068267;28;20060;-66
2022/11/16 04:37:47;;;;;;;9.60;4.57;;;10.20;99.90;;;;;;5066451;28;20081;-67
2022/11/16 04:38:47;;;;;;;8.77;4.20;;;10.20;99.90;;;;;;5067809;28;20094;-67
2022/11/16 04:43:58;;;;;;;8.82;4.47;;;10.20;99.90;;;;;;5066088;28;20053;-66
2022/11/16 04:49:22;;;;;;;12.93;4.75;;;10.20;99.90;;;;;;5022266;28;20084;-67
2022/11/16 04:51:48;;;;;;;11.13;4.75;;;10.20;99.90;;;;;;5065283;28;20045;-66
2022/11/16 04:54:14;;;;;;;8.68;4.72;;;10.10;99.90;;;;;;5065893;28;20517;-66
2022/11/16 04:56:40;;;;;;;9.55;4.50;;;10.10;99.90;;;;;;5066999;28;20040;-66
2022/11/16 04:59:06;;;;;;;9.32;4.93;;;10.10;99.90;;;;;;5066370;28;20048;-65
2022/11/16 05:04:16;;;;;;;7.85;4.53;;;10.10;99.90;;;;;;5067171;28;20052;-66
2022/11/16 05:06:42;;;;;;;8.13;4.85;;;10.10;99.90;;;;;;5065100;28;20052;-66
2022/11/16 05:09:08;;;;;;;13.63;6.45;;;10.10;99.90;;;;;;5048331;28;20049;-66
2022/11/16 05:11:34;;;;;;;13.85;4.60;;;10.10;99.90;;;;;;5066002;28;20071;-66
2022/11/16 05:14:00;;;;;;;8.73;5.15;;;10.10;99.90;;;;;;5048036;28;20048;-66
2022/11/16 05:16:26;;;;;;;6.93;4.70;;;10.10;99.90;;;;;;5067078;28;20060;-66
2022/11/16 05:21:36;;;;;;;8.43;4.97;;;10.10;99.90;;;;;;5054551;28;20399;-65
2022/11/16 05:26:47;;;;;;;15.68;4.60;;;10.10;99.90;;;;;;5055155;28;20052;-66
2022/11/16 05:29:12;;;;;;;8.20;4.38;;;10.10;99.90;;;;;;5065314;28;20056;-65
2022/11/16 05:31:38;;;;;;;9.40;5.15;;;10.10;99.90;;;;;;5065175;28;20124;-65
2022/11/16 05:34:04;;;;;;;6.45;4.50;;;10.10;99.90;;;;;;5048201;28;20044;-65
2022/11/16 05:36:30;;;;;;;10.27;5.57;;;10.10;99.90;;;;;;5064940;28;20097;-66
2022/11/16 05:38:56;;;;;;;10.60;4.80;;;10.10;99.90;;;;;;5066638;28;20052;-66
2022/11/16 05:41:21;;;;;;;8.27;5.22;;;10.10;99.90;;;;;;5064630;28;20047;-65
2022/11/16 05:43:47;;;;;;;12.85;5.47;;;10.10;99.90;;;;;;5066302;28;20063;-66
2022/11/16 05:46:13;;;;;;;8.80;4.72;;;10.10;99.90;;;;;;5064953;28;20082;-66
2022/11/16 05:48:39;;;;;;;7.43;5.35;;;10.10;99.90;;;;;;5066443;28;20044;-65
2022/11/16 05:51:04;;;;;;;7.45;4.88;;;10.10;99.90;;;;;;5065434;28;20032;-66
2022/11/16 05:53:30;;;;;;;10.60;4.90;;;10.10;99.90;;;;;;5047046;28;20097;-65
2022/11/16 05:55:56;;;;;;;11.45;5.32;;;10.10;99.90;;;;;;5066311;28;20063;-66
2022/11/16 05:58:22;;;;;;;7.78;5.00;;;10.10;99.90;;;;;;5064366;28;20105;-66
2022/11/16 06:00:48;;;;;;;5.63;5.13;;;10.10;99.90;;;;;;5066851;28;20041;-65
2022/11/16 06:03:13;;;;;;;9.13;4.75;;;10.00;99.90;;;;;;5063415;28;20040;-66
2022/11/16 06:05:40;;;;;;;6.97;5.05;;;10.10;99.90;;;;;;5047529;28;20120;-66
2022/11/16 06:08:05;;;;;;;6.47;4.47;;;10.00;99.90;;;;;;5065380;28;20105;-66
2022/11/16 06:10:31;;;;;;;8.55;5.18;;;10.10;99.90;;;;;;5065039;28;20048;-66
2022/11/16 06:12:57;;;;;;;10.55;4.97;;;10.00;99.90;;;;;;5065943;28;20078;-66
2022/11/16 06:15:24;;;;;;;6.90;5.40;;;10.10;99.90;;;;;;5064587;28;20044;-65
2022/11/16 06:17:50;;;;;;;8.80;5.45;;;10.00;99.90;;;;;;5066330;28;20482;-66
2022/11/16 06:20:16;;;;;;;8.23;5.35;;;10.00;99.90;;;;;;5064234;28;20472;-66
2022/11/16 06:22:42;;;;;;;9.32;5.32;;;10.00;99.90;;;;;;5031162;28;20795;-65
2022/11/16 06:25:09;;;;;;;7.20;5.13;;;10.00;99.90;;;;;;5064558;28;20060;-65
2022/11/16 06:27:38;;;;;;;7.15;5.38;;;10.00;99.90;;;;;;5065699;28;20082;-65
2022/11/16 06:30:06;;;;;;;8.85;5.30;;;10.00;99.90;;;;;;5065328;28;20495;-65
2022/11/16 06:32:31;;;;;;;8.43;5.35;;;10.00;99.90;;;;;;5045708;28;20076;-65
2022/11/16 06:34:57;;;;;;;8.30;4.97;;;10.00;99.90;;;;;;5047748;28;20151;-65
2022/11/16 06:37:24;;;;;;;5.28;4.78;;;10.00;99.90;;;;;;5066217;28;20490;-65
2022/11/16 06:39:49;;;;;;;8.15;5.22;;;10.10;99.90;;;;;;5070387;28;20381;-65
2022/11/16 06:42:15;;;;;;;9.73;5.60;;;10.10;99.90;;;;;;5050205;28;20063;-65
2022/11/16 06:44:41;;;;;;;5.25;4.75;;;10.10;99.90;;;;;;5069044;28;20060;-65
2022/11/16 06:47:06;;;;;;;5.55;4.57;;;10.00;99.90;;;;;;5068802;28;20063;-65
2022/11/16 06:49:33;;;;;;;5.85;4.72;;;10.10;99.90;;;;;;5068526;28;20121;-66
2022/11/16 06:51:58;;;;;;;8.57;4.65;;;10.10;99.90;;;;;;5069532;28;20208;-66
2022/11/16 06:54:24;;;;;;;6.43;5.57;;;10.10;99.90;;;;;;5067420;28;20083;-66
2022/11/16 06:56:50;;;;;;;8.00;4.80;;;10.10;99.90;;;;;;5051197;28;20052;-65
2022/11/16 06:59:15;;;;;;;7.72;5.50;;;10.10;99.90;;;;;;5067561;28;20495;-66
2022/11/16 07:01:42;;;;;;;9.10;5.25;;;10.10;99.90;;;;;;5069349;28;20048;-65
2022/11/16 07:04:10;;;;;;;7.85;5.10;;;10.10;99.90;;;;;;5067820;28;20036;-65
2022/11/16 07:06:37;;;;;;;5.45;4.90;;;10.10;99.90;;;;;;5062659;28;20052;-65
2022/11/16 07:09:08;;;;;;;18.63;5.57;;;10.20;99.90;;;;;;5067049;28;20147;-65
2022/11/16 07:11:34;;;;;;;8.65;5.50;;;10.20;99.90;;;;;;5055065;28;20125;-65
2022/11/16 07:14:01;;;;;;;10.98;5.70;;;10.20;99.90;;;;;;5069438;28;20043;-67
2022/11/16 07:16:28;;;;;;;12.90;5.95;;;10.20;99.90;;;;;;5067023;28;20044;-67
2022/11/16 07:18:58;;;;;;;9.50;7.28;;;10.20;99.90;;;;;;5069450;28;20406;-67
2022/11/16 07:21:24;;;;;;;7.18;5.70;;;10.20;99.90;;;;;;5067592;28;20051;-68
2022/11/16 07:23:50;;;;;;;8.05;5.90;;;10.20;99.90;;;;;;5068743;28;20052;-68
2022/11/16 07:26:16;;;;;;;5.93;5.22;;;10.20;99.90;;;;;;5050011;28;20399;-68
2022/11/16 07:28:43;;;;;;;9.07;6.10;;;10.20;99.90;;;;;;5067711;28;20064;-67
2022/11/16 07:31:11;;;;;;;7.90;6.10;;;10.20;99.90;;;;;;5068755;28;20041;-68
2022/11/16 07:33:37;;;;;;;6.55;5.75;;;10.20;99.90;;;;;;5067124;28;20409;-68
2022/11/16 07:36:05;;;;;;;8.15;6.93;;;10.30;99.90;;;;;;5068382;28;21023;-68
2022/11/16 07:38:37;;;;;;;9.63;5.75;;;10.30;99.90;;;;;;5067886;28;20620;-66
2022/11/16 07:41:10;;;;;;;9.00;6.80;;;10.30;99.90;;;;;;5068621;28;20048;-65
2022/11/16 07:43:35;;;;;;;9.63;6.60;;;10.30;99.90;;;;;;5036861;28;20076;-65
2022/11/16 07:46:08;;;;;;;10.20;7.18;;;10.30;99.90;;;;;;5048914;28;20048;-65
2022/11/16 07:48:34;;;;;;;7.72;6.93;;;10.40;99.90;;;;;;5049866;28;20494;-66
2022/11/16 07:51:05;;;;;;;8.80;6.47;;;10.40;99.90;;;;;;5067009;28;20119;-65
2022/11/16 07:53:32;;;;;;;9.77;7.05;;;10.40;99.90;;;;;;5068371;28;20173;-66
2022/11/16 07:55:58;;;;;;;11.38;6.63;;;10.40;99.90;;;;;;5067510;28;20032;-66
2022/11/16 07:58:24;;;;;;;9.88;7.30;;;10.40;99.90;;;;;;5049712;28;20398;-65
2022/11/16 08:00:50;;;;;;;8.60;7.40;;;10.40;99.90;;;;;;5067826;28;20499;-65
2022/11/16 08:03:16;;;;;;;12.85;7.05;;;10.40;99.90;;;;;;5066037;28;20059;-65
2022/11/16 08:05:43;;;;;;;10.07;6.85;;;10.40;99.90;;;;;;5068211;28;20041;-66
2022/11/16 08:08:10;;;;;;;7.82;6.38;;;10.40;99.90;;;;;;5066482;28;20041;-66
2022/11/16 08:10:36;;;;;;;9.90;6.72;;;10.40;99.90;;;;;;5049851;28;20060;-66
2022/11/16 08:13:02;;;;;;;10.40;7.22;;;10.40;99.90;;;;;;5066784;28;20041;-65
2022/11/16 08:15:27;;;;;;;8.45;5.85;;;10.40;99.90;;;;;;5067100;28;20042;-65
2022/11/16 08:17:53;;;;;;;9.35;6.75;;;10.40;99.90;;;;;;5067142;28;20044;-66
2022/11/16 08:20:19;;;;;;;9.00;6.50;;;10.50;99.90;;;;;;5035517;28;20514;-65
2022/11/16 08:22:44;;;;;;;8.80;6.43;;;10.40;99.90;;;;;;5064066;28;20059;-66
2022/11/16 08:25:12;;;;;;;11.02;6.70;;;10.50;99.90;;;;;;5066209;28;20123;-66
2022/11/16 08:27:39;;;;;;;9.50;5.88;;;10.40;99.90;;;;;;5066967;28;20515;-68
2022/11/16 08:30:08;;;;;;;7.72;6.95;;;10.50;99.90;;;;;;5046954;28;20048;-68
2022/11/16 08:32:35;;;;;;;10.23;6.70;;;10.40;99.90;;;;;;5065926;28;20478;-68
2022/11/16 08:35:01;;;;;;;13.20;6.72;;;10.50;99.90;;;;;;5066107;28;20084;-68
2022/11/16 08:37:27;;;;;;;10.07;7.53;;;10.50;99.90;;;;;;5065883;28;20036;-68
2022/11/16 08:39:53;;;;;;;9.05;6.80;;;10.50;99.90;;;;;;5066678;28;20047;-68
2022/11/16 08:42:20;;;;;;;9.63;7.43;;;10.50;99.90;;;;;;5064940;28;20123;-68
2022/11/16 08:44:45;;;;;;;10.63;6.80;;;10.40;99.90;;;;;;5049009;28;20527;-68
2022/11/16 08:47:13;;;;;;;13.15;6.65;;;10.50;99.90;;;;;;5065439;28;20112;-68
2022/11/16 08:49:38;;;;;;;10.60;6.90;;;10.40;99.90;;;;;;5066033;28;20510;-68
2022/11/16 08:52:04;;;;;;;9.32;6.70;;;10.40;99.90;;;;;;5063830;28;20048;-68
2022/11/16 08:54:30;;;;;;;7.00;6.15;;;10.40;99.90;;;;;;5065561;28;20458;-68
2022/11/16 08:56:56;;;;;;;11.55;7.22;;;10.40;99.90;;;;;;5065587;28;20411;-68
2022/11/16 08:59:22;;;;;;;9.38;6.38;;;10.40;99.90;;;;;;5064193;28;20041;-68
2022/11/16 09:01:51;;;;;;;8.52;6.40;;;10.50;99.90;;;;;;5048601;28;20052;-68
2022/11/16 09:04:17;;;;;;;8.40;6.10;;;10.40;99.90;;;;;;5065113;28;20124;-68
2022/11/16 09:06:43;;;;;;;8.23;6.43;;;10.40;99.90;;;;;;5067092;28;20098;-68
2022/11/16 09:09:09;;;;;;;6.43;5.75;;;10.50;99.90;;;;;;5062435;28;20037;-69
2022/11/16 09:11:35;;;;;;;8.13;5.35;;;10.50;99.90;;;;;;5065046;28;20649;-68
2022/11/16 09:14:01;;;;;;;11.07;5.78;;;10.50;99.90;;;;;;5065848;28;20063;-67
2022/11/16 09:16:27;;;;;;;8.60;6.13;;;10.60;99.90;;;;;;5065740;28;20543;-67
2022/11/16 09:18:54;;;;;;;7.05;5.32;;;10.50;99.90;;;;;;5046461;28;20056;-68
2022/11/16 09:21:25;;;;;;;10.52;5.47;;;10.60;99.90;;;;;;5043954;28;20139;-68
2022/11/16 09:23:52;;;;;;;6.75;5.97;;;10.60;99.90;;;;;;5063769;28;20424;-68
2022/11/16 09:26:21;;;;;;;7.47;6.28;;;10.60;99.90;;;;;;5062595;28;20033;-68
2022/11/16 09:28:56;;;;;;;8.33;5.63;;;10.50;99.90;;;;;;5047076;28;20041;-67
2022/11/16 09:31:26;;;;;;;7.53;6.15;;;10.60;99.90;;;;;;5062033;28;20071;-67
2022/11/16 09:33:52;;;;;;;7.45;6.07;;;10.60;99.90;;;;;;5063485;28;20040;-67
2022/11/16 09:36:19;;;;;;;11.90;6.20;;;10.60;99.90;;;;;;5063416;28;20494;-68
2022/11/16 09:38:53;;;;;;;9.70;6.45;;;10.60;99.90;;;;;;5061762;28;20514;-68
2022/11/16 09:41:52;;;;;;;6.50;5.90;;;10.60;99.90;;;;;;5045400;28;20090;-68
2022/11/16 09:44:42;;;;;;;8.57;6.53;;;10.60;99.90;;;;;;5064102;28;20056;-68
2022/11/16 09:47:16;;;;;;;9.05;6.28;;;10.60;99.90;;;;;;5064203;28;20041;-67
2022/11/16 09:49:47;;;;;;;7.35;6.15;;;10.60;99.90;;;;;;5044023;28;20216;-67
2022/11/16 09:52:37;;;;;;;9.40;6.22;;;10.70;99.90;;;;;;5062901;28;20123;-67
2022/11/16 09:55:23;;;;;;;7.10;6.03;;;10.70;99.90;;;;;;5065615;28;20048;-67
2022/11/16 09:57:54;;;;;;;9.75;6.80;;;10.70;99.90;;;;;;5065442;28;20060;-67
2022/11/16 10:00:22;;;;;;;9.65;6.65;;;10.70;99.90;;;;;;5046401;28;20045;-68
2022/11/16 10:03:04;;;;;;;11.23;6.72;;;10.70;99.90;;;;;;5048358;28;20048;-69
2022/11/16 10:05:38;;;;;;;9.52;7.22;;;10.80;99.90;;;;;;5063947;28;20036;-68
2022/11/16 10:08:13;;;;;;;9.00;6.95;;;10.80;99.90;;;;;;5066016;28;20044;-68
2022/11/16 10:10:51;;;;;;;11.65;7.85;;;10.80;99.90;;;;;;5056859;28;20040;-68
2022/11/16 10:14:09;;;;;;;13.60;7.07;;;10.90;99.90;;;;;;5045461;28;20503;-67
2022/11/16 10:16:41;;;;;;;10.95;7.80;;;10.90;99.90;;;;;;5042222;28;20056;-67
2022/11/16 10:19:18;;;;;;;11.10;7.43;;;11.00;99.90;;;;;;5064992;28;20097;-68
2022/11/16 10:22:00;;;;;;;10.05;6.72;;;11.10;99.90;;;;;;5027873;28;20064;-67
2022/11/16 10:24:52;;;;;;;8.50;7.07;;;11.10;99.90;;;;;;5062318;28;20109;-67
2022/11/16 10:27:29;;;;;;;10.75;7.55;;;11.10;99.90;;;;;;5064365;28;20533;-67
2022/11/16 10:30:07;;;;;;;8.95;7.18;;;11.10;99.90;;;;;;5065360;28;20037;-66
2022/11/16 10:32:39;;;;;;;11.02;7.10;;;11.20;99.90;;;;;;5065517;28;20040;-67
2022/11/16 10:35:19;;;;;;;9.88;6.68;;;11.20;99.90;;;;;;5064082;28;20481;-67
2022/11/16 10:37:48;;;;;;;9.75;6.90;;;11.30;99.90;;;;;;5047545;28;20157;-67
2022/11/16 10:40:47;;;;;;;12.05;7.45;;;11.30;99.90;;;;;;5060206;28;20528;-67
2022/11/16 10:43:22;;;;;;;9.65;7.03;;;11.30;99.90;;;;;;4970885;28;20054;-67
2022/11/16 10:46:03;;;;;;;8.55;7.20;;;11.30;99.90;;;;;;5060707;28;20048;-67
2022/11/16 10:48:48;;;;;;;8.50;7.00;;;11.30;99.90;;;;;;5060582;28;20131;-67
2022/11/16 10:51:14;;;;;;;7.78;6.97;;;11.30;99.90;;;;;;5062284;28;20694;-67
2022/11/16 10:53:42;;;;;;;8.15;6.68;;;11.40;99.90;;;;;;5061164;28;20131;-67
2022/11/16 10:56:36;;;;;;;10.25;7.00;;;11.40;99.90;;;;;;5061674;28;20075;-67
2022/11/16 10:59:04;;;;;;;9.18;6.93;;;11.40;99.90;;;;;;5042919;28;20048;-67
2022/11/16 11:01:43;;;;;;;9.10;7.03;;;11.40;99.90;;;;;;5060546;28;20433;-67
2022/11/16 11:04:23;;;;;;;9.75;7.60;;;11.40;99.90;;;;;;5060936;28;20061;-67
2022/11/16 11:06:52;;;;;;;7.95;6.65;;;11.40;99.90;;;;;;5064168;28;20043;-67
2022/11/16 11:09:25;;;;;;;7.95;7.10;;;11.40;99.90;;;;;;5063533;28;20044;-67
2022/11/16 11:14:58;;;;;;;10.02;6.95;;;11.40;99.90;;;;;;5062651;28;20410;-67
2022/11/16 11:17:25;;;;;;;7.32;6.55;;;11.40;99.90;;;;;;5028863;28;20059;-67
2022/11/16 11:20:23;;;;;;;6.10;5.50;;;11.40;99.90;;;;;;5063828;28;20327;-67
2022/11/16 11:22:57;;;;;;;8.38;6.90;;;11.40;99.90;;;;;;5028859;28;20059;-65
2022/11/16 11:25:40;;;;;;;9.02;6.28;;;11.30;99.90;;;;;;5068709;28;20047;-66
2022/11/16 11:28:17;;;;;;;7.03;6.22;;;11.30;99.90;;;;;;5067253;28;20491;-65
2022/11/16 11:30:57;;;;;;;7.63;6.57;;;11.30;99.90;;;;;;5066487;28;20044;-65
2022/11/16 11:33:27;;;;;;;8.50;6.90;;;11.30;99.90;;;;;;5067382;28;20402;-65
2022/11/16 11:36:03;;;;;;;7.22;6.18;;;11.30;99.90;;;;;;5066077;28;20290;-65
2022/11/16 11:38:29;;;;;;;7.55;6.80;;;11.30;99.90;;;;;;5067643;28;20493;-67
2022/11/16 11:41:04;;;;;;;9.43;6.97;;;11.30;99.90;;;;;;5066457;28;20045;-67
2022/11/16 11:43:36;;;;;;;8.73;6.93;;;11.30;99.90;;;;;;5062599;28;20576;-67
2022/11/16 11:46:14;;;;;;;8.20;7.00;;;11.30;99.90;;;;;;5065690;28;20048;-67
2022/11/16 11:48:55;;;;;;;8.30;7.13;;;11.30;99.90;;;;;;5060383;28;20115;-67
2022/11/16 11:51:29;;;;;;;8.70;6.78;;;11.30;99.90;;;;;;5041466;28;20056;-67
2022/11/16 11:53:59;;;;;;;7.65;6.85;;;11.40;99.90;;;;;;5059768;28;20282;-67
2022/11/16 11:56:29;;;;;;;9.48;7.50;;;11.40;99.90;;;;;;5065572;28;20131;-67
2022/11/16 11:58:55;;;;;;;13.50;8.77;;;11.50;99.90;;;;;;5044859;28;20036;-67
2022/11/16 12:01:40;;;;;;;9.30;7.75;;;11.60;99.90;;;;;;5063013;28;20051;-67
2022/11/16 12:04:43;;;;;;;8.60;7.55;;;11.70;99.90;;;;;;5043138;28;20044;-68
2022/11/16 12:07:11;;;;;;;18.20;8.43;;;11.70;99.90;;;;;;5064025;28;20431;-68
2022/11/16 12:09:58;;;;;;;12.27;8.13;;;11.70;99.90;;;;;;5045842;28;20087;-68
2022/11/16 12:12:58;;;;;;;12.82;7.75;;;11.70;99.90;;;;;;5042484;28;20045;-66
2022/11/16 12:15:52;;;;;;;11.23;8.02;;;11.60;99.90;;;;;;5063108;28;20394;-66
2022/11/16 12:18:36;;;;;;;14.68;8.27;;;11.60;99.90;;;;;;5045691;28;20425;-66
2022/11/16 12:21:11;;;;;;;14.43;8.75;;;11.60;99.90;;;;;;5065070;28;20040;-66
2022/11/16 12:24:10;;;;;;;14.23;7.95;;;11.50;99.90;;;;;;5056497;28;20087;-66
2022/11/16 12:26:47;;;;;;;11.73;9.43;;;11.50;99.90;;;;;;5064466;28;20044;-66
2022/11/16 12:29:49;;;;;;;13.55;8.10;;;11.50;99.90;;;;;;5049609;28;21144;-68
2022/11/16 12:32:24;;;;;;;16.63;7.60;;;11.40;99.90;;;;;;5047324;28;20048;-66
2022/11/16 12:35:18;;;;;;;12.88;6.90;;;11.40;99.90;;;;;;5068468;28;20487;-66
2022/11/16 12:38:08;;;;;;;14.85;7.22;;;11.30;99.90;;;;;;5057506;28;20040;-66
2022/11/16 12:40:52;;;;;;;;;;;11.30;99.90;;;;;;5054364;28;20055;-66
2022/11/16 12:43:37;;;;;;;11.38;6.40;;;11.30;99.90;;;;;;5064437;28;19928;-66
2022/11/16 12:46:36;;;;;;;11.27;6.28;;;11.30;99.90;;;;;;5045533;28;20522;-66
2022/11/16 12:49:28;;;;;;;17.88;7.00;;;11.20;99.90;;;;;;5062379;28;20114;-66
2022/11/16 12:52:13;;;;;;;13.60;6.70;;;11.20;99.90;;;;;;5032056;28;20371;-66
2022/11/16 12:54:57;;;;;;;14.07;6.93;;;11.20;99.90;;;;;;5061043;28;20105;-66
2022/11/16 12:58:09;;;;;;;14.45;6.22;;;11.20;99.90;;;;;;5061658;28;20140;-66
2022/11/16 13:00:56;;;;;;;16.85;6.65;;;11.30;99.90;;;;;;5063066;28;20040;-66
2022/11/16 13:03:46;;;;;;;19.15;7.10;;;11.40;99.90;;;;;;5041265;28;20303;-67
2022/11/16 13:06:24;;;;;;;13.85;6.93;;;11.60;99.90;;;;;;5063671;28;20048;-66
2022/11/16 13:09:14;;;;;;;12.23;6.15;;;11.70;99.90;;;;;;5065776;28;20402;-66
2022/11/16 13:12:27;;;;;;;11.02;6.57;;;11.90;99.90;;;;;;5050847;28;20063;-65
2022/11/16 13:14:56;;;;;;;17.02;6.95;;;12.00;99.90;;;;;;5054508;28;20993;-65
2022/11/16 13:17:36;;;;;;;11.85;6.20;;;12.10;99.90;;;;;;5066407;28;20055;-65
2022/11/16 13:20:36;;;;;;;12.15;5.40;;;12.20;99.90;;;;;;5064462;28;20040;-65
2022/11/16 13:23:21;;;;;;;9.65;4.97;;;12.20;99.90;;;;;;5064294;28;20044;-65
2022/11/16 13:26:09;;;;;;;8.75;3.80;;;12.20;99.90;;;;;;5066889;28;20059;-65
2022/11/16 13:28:56;;;;;;;6.78;3.63;;;12.20;99.90;;;;;;5053864;28;20048;-65
2022/11/16 13:31:46;;;;;;;7.35;3.40;;;12.20;99.90;;;;;;5064141;28;20082;-65
2022/11/16 13:34:21;;;;;;;6.18;2.85;;;12.30;99.90;;;;;;5066721;28;20486;-65
2022/11/16 13:36:47;;;;;;;10.23;3.40;;;12.30;99.90;;;;;;5064015;28;20499;-65
2022/11/16 13:39:18;;;;;;;9.90;3.75;;;12.40;99.90;;;;;;5031862;28;20462;-65
2022/11/16 13:41:47;;;;;;;9.65;3.42;;;12.40;99.90;;;;;;5065235;28;20041;-65
2022/11/16 13:44:19;;;;;;;9.95;2.95;;;12.30;99.90;;;;;;5047637;28;20167;-65
2022/11/16 13:46:45;;;;;;;10.77;3.13;;;12.30;99.90;;;;;;5064591;28;20059;-65
2022/11/16 13:49:32;;;;;;;6.53;2.85;;;12.30;99.90;;;;;;5064648;28;20052;-66
2022/11/16 13:52:02;;;;;;;11.40;3.72;;;12.30;99.90;;;;;;5066039;28;20055;-65
2022/11/16 13:54:34;;;;;;;15.02;3.00;;;12.20;99.90;;;;;;5045250;28;20466;-66
2022/11/16 13:57:04;;;;;;;8.55;3.00;;;12.20;99.90;;;;;;5064011;28;20052;-65
2022/11/16 13:59:33;;;;;;;10.45;3.13;;;12.20;99.90;;;;;;5062948;28;20503;-64
2022/11/16 14:02:03;;;;;;;8.52;3.28;;;12.10;99.90;;;;;;5045459;28;20033;-65